Forside
METAR-TAF:

METAR-TAF

Lufthavne :

Faribault Municipal Airport

Faribault, Minnesota, USA

Breddekreds: 44-20N, længdekreds: 093-19W, højde: 322 m

Aktuelle vejr

Denne rapport blev lavet for 17 minutter siden, kl. 11:55 UTC
Vind 3 kt fra sydøst
Temperatur 17°C
Fugtighed 82%
Tryk 1017 hPa
Sigt: 16.1 km
skyfri

METAR: KFBL 121155Z AUTO 13003KT 10SM CLR 17/14 A3003 RMK AO2 LTG DSNT W

Tid: 07:12 (12:12 UTC)


TAF: fraværende

Vejrobservationer og prognoser fra mere end 4000 lufthavne (METAR og TAF).

De gule og røde prikker repræsenterer de meteorologiske stationer.

Flyt musen over at se navnet på stationen.

Så klik over at se vejr observationer og prognoser.

At skifte det kort: Klik på de grønne knapper med et sort kors for at zoome ind; på den grønne knap med en bindestreg for at zoome ud; eller på de grønne pile for tilstødende kort.


METAR-TAF: